sensor_id;sensor_type;location;lat;lon;timestamp;pressure;altitude;pressure_sealevel;temperature;humidity
57290;BME280;43523;53.022;-1.178;2022-11-03T00:00:47;99558.56;;;7.53;100.00
57290;BME280;43523;53.022;-1.178;2022-11-03T00:01:50;99559.27;;;7.14;100.00
57290;BME280;43523;53.022;-1.178;2022-11-03T00:02:51;99561.16;;;7.56;100.00
57290;BME280;43523;53.022;-1.178;2022-11-03T00:03:54;99558.25;;;7.09;100.00
57290;BME280;43523;53.022;-1.178;2022-11-03T00:04:56;99560.25;;;7.18;100.00
57290;BME280;43523;53.022;-1.178;2022-11-03T00:05:59;99552.36;;;7.16;100.00
57290;BME280;43523;53.022;-1.178;2022-11-03T00:07:01;99552.16;;;7.34;100.00
57290;BME280;43523;53.022;-1.178;2022-11-03T00:08:05;99546.32;;;7.12;100.00
57290;BME280;43523;53.022;-1.178;2022-11-03T00:09:08;99547.13;;;7.12;100.00
57290;BME280;43523;53.022;-1.178;2022-11-03T00:10:11;99548.20;;;7.05;100.00
57290;BME280;43523;53.022;-1.178;2022-11-03T00:11:14;99550.16;;;6.94;100.00
57290;BME280;43523;53.022;-1.178;2022-11-03T00:12:22;99548.84;;;6.78;100.00
57290;BME280;43523;53.022;-1.178;2022-11-03T00:13:24;99548.44;;;7.07;100.00
57290;BME280;43523;53.022;-1.178;2022-11-03T00:14:27;99552.71;;;6.93;100.00
57290;BME280;43523;53.022;-1.178;2022-11-03T00:15:29;99555.10;;;7.18;100.00
57290;BME280;43523;53.022;-1.178;2022-11-03T00:16:32;99550.15;;;7.15;100.00
57290;BME280;43523;53.022;-1.178;2022-11-03T00:17:36;99558.60;;;6.82;100.00
57290;BME280;43523;53.022;-1.178;2022-11-03T00:18:38;99558.97;;;6.77;100.00
57290;BME280;43523;53.022;-1.178;2022-11-03T00:19:40;99558.34;;;6.78;100.00
57290;BME280;43523;53.022;-1.178;2022-11-03T00:20:43;99551.82;;;6.66;100.00
57290;BME280;43523;53.022;-1.178;2022-11-03T00:21:45;99570.37;;;6.76;100.00
57290;BME280;43523;53.022;-1.178;2022-11-03T00:22:48;99558.75;;;6.97;100.00
57290;BME280;43523;53.022;-1.178;2022-11-03T00:23:50;99554.92;;;7.22;100.00
57290;BME280;43523;53.022;-1.178;2022-11-03T00:24:52;99553.84;;;7.09;100.00
57290;BME280;43523;53.022;-1.178;2022-11-03T00:26:02;99556.29;;;6.78;100.00
57290;BME280;43523;53.022;-1.178;2022-11-03T00:27:04;99551.64;;;6.77;100.00
57290;BME280;43523;53.022;-1.178;2022-11-03T00:28:07;99556.04;;;6.77;100.00
57290;BME280;43523;53.022;-1.178;2022-11-03T00:29:11;99548.09;;;7.29;100.00
57290;BME280;43523;53.022;-1.178;2022-11-03T00:30:13;99550.33;;;7.11;100.00
57290;BME280;43523;53.022;-1.178;2022-11-03T00:31:17;99549.27;;;6.69;100.00
57290;BME280;43523;53.022;-1.178;2022-11-03T00:32:20;99549.81;;;6.78;100.00
57290;BME280;43523;53.022;-1.178;2022-11-03T00:33:22;99550.68;;;6.64;100.00
57290;BME280;43523;53.022;-1.178;2022-11-03T00:34:25;99550.90;;;6.83;100.00
57290;BME280;43523;53.022;-1.178;2022-11-03T00:35:28;99552.21;;;6.47;100.00
57290;BME280;43523;53.022;-1.178;2022-11-03T00:36:33;99547.29;;;6.47;100.00
57290;BME280;43523;53.022;-1.178;2022-11-03T00:37:35;99550.55;;;6.59;100.00
57290;BME280;43523;53.022;-1.178;2022-11-03T00:38:38;99544.93;;;6.41;100.00
57290;BME280;43523;53.022;-1.178;2022-11-03T00:39:41;99545.26;;;6.55;100.00
57290;BME280;43523;53.022;-1.178;2022-11-03T00:40:44;99548.77;;;6.96;100.00
57290;BME280;43523;53.022;-1.178;2022-11-03T00:41:46;99550.84;;;6.43;100.00
57290;BME280;43523;53.022;-1.178;2022-11-03T00:42:48;99553.80;;;6.51;100.00
57290;BME280;43523;53.022;-1.178;2022-11-03T00:43:52;99551.97;;;6.38;100.00
57290;BME280;43523;53.022;-1.178;2022-11-03T00:44:54;99552.57;;;6.19;100.00
57290;BME280;43523;53.022;-1.178;2022-11-03T00:45:56;99554.40;;;6.15;100.00
57290;BME280;43523;53.022;-1.178;2022-11-03T00:46:59;99553.68;;;6.26;100.00
57290;BME280;43523;53.022;-1.178;2022-11-03T00:48:01;99554.47;;;6.43;100.00
57290;BME280;43523;53.022;-1.178;2022-11-03T00:49:04;99553.98;;;6.66;100.00
57290;BME280;43523;53.022;-1.178;2022-11-03T00:50:06;99554.66;;;6.65;100.00
57290;BME280;43523;53.022;-1.178;2022-11-03T00:51:10;99544.86;;;6.37;100.00
57290;BME280;43523;53.022;-1.178;2022-11-03T00:52:13;99556.69;;;6.29;100.00
57290;BME280;43523;53.022;-1.178;2022-11-03T00:53:15;99552.15;;;6.33;100.00
57290;BME280;43523;53.022;-1.178;2022-11-03T00:54:17;99552.29;;;6.60;100.00
57290;BME280;43523;53.022;-1.178;2022-11-03T00:55:20;99557.14;;;6.35;100.00
57290;BME280;43523;53.022;-1.178;2022-11-03T00:56:25;99556.07;;;6.14;100.00
57290;BME280;43523;53.022;-1.178;2022-11-03T00:57:29;99555.35;;;6.31;100.00
57290;BME280;43523;53.022;-1.178;2022-11-03T00:58:32;99560.34;;;6.32;100.00
57290;BME280;43523;53.022;-1.178;2022-11-03T00:59:35;99562.92;;;6.56;100.00
57290;BME280;43523;53.022;-1.178;2022-11-03T01:00:37;99563.60;;;6.39;100.00
57290;BME280;43523;53.022;-1.178;2022-11-03T01:01:41;99560.87;;;6.12;100.00
57290;BME280;43523;53.022;-1.178;2022-11-03T01:02:44;99561.17;;;6.23;100.00
57290;BME280;43523;53.022;-1.178;2022-11-03T01:03:48;99559.60;;;6.36;100.00
57290;BME280;43523;53.022;-1.178;2022-11-03T01:04:51;99566.45;;;6.21;100.00
57290;BME280;43523;53.022;-1.178;2022-11-03T01:05:53;99558.37;;;6.65;100.00
57290;BME280;43523;53.022;-1.178;2022-11-03T01:06:57;99561.61;;;6.00;100.00
57290;BME280;43523;53.022;-1.178;2022-11-03T01:08:00;99555.67;;;5.95;100.00
57290;BME280;43523;53.022;-1.178;2022-11-03T01:09:02;99557.43;;;6.28;100.00
57290;BME280;43523;53.022;-1.178;2022-11-03T01:10:05;99552.84;;;6.49;100.00
57290;BME280;43523;53.022;-1.178;2022-11-03T01:11:10;99553.14;;;6.57;100.00
57290;BME280;43523;53.022;-1.178;2022-11-03T01:12:15;99561.53;;;6.69;100.00
57290;BME280;43523;53.022;-1.178;2022-11-03T01:13:18;99559.82;;;6.43;100.00
57290;BME280;43523;53.022;-1.178;2022-11-03T01:14:20;99562.09;;;6.50;100.00
57290;BME280;43523;53.022;-1.178;2022-11-03T01:15:23;99560.81;;;6.84;100.00
57290;BME280;43523;53.022;-1.178;2022-11-03T01:16:25;99560.16;;;6.54;100.00
57290;BME280;43523;53.022;-1.178;2022-11-03T01:17:28;99564.81;;;6.12;100.00
57290;BME280;43523;53.022;-1.178;2022-11-03T01:18:31;99567.84;;;6.35;100.00
57290;BME280;43523;53.022;-1.178;2022-11-03T01:19:34;99572.07;;;6.12;100.00
57290;BME280;43523;53.022;-1.178;2022-11-03T01:20:38;99568.32;;;6.09;100.00
57290;BME280;43523;53.022;-1.178;2022-11-03T01:21:41;99561.86;;;6.24;100.00
57290;BME280;43523;53.022;-1.178;2022-11-03T01:22:46;99562.18;;;6.33;100.00
57290;BME280;43523;53.022;-1.178;2022-11-03T01:23:48;99561.80;;;6.00;100.00
57290;BME280;43523;53.022;-1.178;2022-11-03T01:24:51;99564.82;;;6.24;100.00
57290;BME280;43523;53.022;-1.178;2022-11-03T01:25:53;99563.13;;;6.43;100.00
57290;BME280;43523;53.022;-1.178;2022-11-03T01:26:56;99561.69;;;5.99;100.00
57290;BME280;43523;53.022;-1.178;2022-11-03T01:27:59;99557.99;;;6.44;100.00
57290;BME280;43523;53.022;-1.178;2022-11-03T01:29:01;99560.20;;;6.05;100.00
57290;BME280;43523;53.022;-1.178;2022-11-03T01:30:04;99553.76;;;6.28;100.00
57290;BME280;43523;53.022;-1.178;2022-11-03T01:31:09;99556.46;;;6.14;100.00
57290;BME280;43523;53.022;-1.178;2022-11-03T01:32:12;99562.18;;;6.21;100.00
57290;BME280;43523;53.022;-1.178;2022-11-03T01:33:14;99559.66;;;6.17;100.00
57290;BME280;43523;53.022;-1.178;2022-11-03T01:34:19;99558.56;;;6.37;100.00
57290;BME280;43523;53.022;-1.178;2022-11-03T01:35:21;99556.02;;;6.19;100.00
57290;BME280;43523;53.022;-1.178;2022-11-03T01:36:24;99552.21;;;6.27;100.00
57290;BME280;43523;53.022;-1.178;2022-11-03T01:37:28;99553.32;;;6.11;100.00
57290;BME280;43523;53.022;-1.178;2022-11-03T01:38:31;99557.68;;;6.09;100.00
57290;BME280;43523;53.022;-1.178;2022-11-03T01:39:34;99555.61;;;6.03;100.00
57290;BME280;43523;53.022;-1.178;2022-11-03T01:40:37;99554.92;;;6.28;100.00
57290;BME280;43523;53.022;-1.178;2022-11-03T01:41:42;99551.66;;;5.92;100.00
57290;BME280;43523;53.022;-1.178;2022-11-03T01:42:46;99555.52;;;5.80;100.00
57290;BME280;43523;53.022;-1.178;2022-11-03T01:43:50;99551.10;;;5.94;100.00
57290;BME280;43523;53.022;-1.178;2022-11-03T01:44:53;99546.34;;;6.33;100.00
57290;BME280;43523;53.022;-1.178;2022-11-03T01:46:01;99541.20;;;6.03;100.00
57290;BME280;43523;53.022;-1.178;2022-11-03T01:47:12;99539.27;;;5.92;100.00
57290;BME280;43523;53.022;-1.178;2022-11-03T01:48:16;99544.90;;;6.00;100.00
57290;BME280;43523;53.022;-1.178;2022-11-03T01:49:24;99542.83;;;5.95;100.00
57290;BME280;43523;53.022;-1.178;2022-11-03T01:50:29;99549.96;;;6.06;100.00
57290;BME280;43523;53.022;-1.178;2022-11-03T01:51:34;99545.15;;;6.14;100.00
57290;BME280;43523;53.022;-1.178;2022-11-03T01:52:39;99545.90;;;6.29;100.00
57290;BME280;43523;53.022;-1.178;2022-11-03T01:53:46;99554.09;;;6.39;100.00
57290;BME280;43523;53.022;-1.178;2022-11-03T01:54:52;99551.13;;;6.06;100.00
57290;BME280;43523;53.022;-1.178;2022-11-03T01:55:57;99559.73;;;6.02;100.00
57290;BME280;43523;53.022;-1.178;2022-11-03T01:57:01;99555.84;;;6.22;100.00
57290;BME280;43523;53.022;-1.178;2022-11-03T01:58:09;99551.67;;;5.89;100.00
57290;BME280;43523;53.022;-1.178;2022-11-03T01:59:20;99547.99;;;6.25;100.00
57290;BME280;43523;53.022;-1.178;2022-11-03T02:00:23;99550.16;;;5.77;100.00
57290;BME280;43523;53.022;-1.178;2022-11-03T02:01:25;99545.99;;;6.00;100.00
57290;BME280;43523;53.022;-1.178;2022-11-03T02:02:29;99536.12;;;6.19;100.00
57290;BME280;43523;53.022;-1.178;2022-11-03T02:03:35;99533.21;;;6.09;100.00
57290;BME280;43523;53.022;-1.178;2022-11-03T02:04:40;99534.56;;;5.72;100.00
57290;BME280;43523;53.022;-1.178;2022-11-03T02:05:46;99535.66;;;5.72;100.00
57290;BME280;43523;53.022;-1.178;2022-11-03T02:06:53;99535.01;;;5.92;100.00
57290;BME280;43523;53.022;-1.178;2022-11-03T02:08:05;99536.91;;;5.99;100.00
57290;BME280;43523;53.022;-1.178;2022-11-03T02:09:15;99538.30;;;6.31;100.00
57290;BME280;43523;53.022;-1.178;2022-11-03T02:10:21;99540.78;;;5.79;100.00
57290;BME280;43523;53.022;-1.178;2022-11-03T02:11:24;99545.50;;;6.31;100.00
57290;BME280;43523;53.022;-1.178;2022-11-03T02:12:27;99538.46;;;6.26;100.00
57290;BME280;43523;53.022;-1.178;2022-11-03T02:13:30;99535.35;;;5.87;100.00
57290;BME280;43523;53.022;-1.178;2022-11-03T02:14:33;99536.53;;;5.71;100.00
57290;BME280;43523;53.022;-1.178;2022-11-03T02:15:37;99532.94;;;5.81;100.00
57290;BME280;43523;53.022;-1.178;2022-11-03T02:16:43;99533.85;;;5.87;100.00
57290;BME280;43523;53.022;-1.178;2022-11-03T02:17:49;99543.58;;;5.85;100.00
57290;BME280;43523;53.022;-1.178;2022-11-03T02:18:53;99541.97;;;5.98;100.00
57290;BME280;43523;53.022;-1.178;2022-11-03T02:19:59;99543.30;;;6.00;100.00
57290;BME280;43523;53.022;-1.178;2022-11-03T02:21:11;99549.03;;;6.07;100.00
57290;BME280;43523;53.022;-1.178;2022-11-03T02:22:30;99546.19;;;6.18;100.00
57290;BME280;43523;53.022;-1.178;2022-11-03T02:23:39;99549.20;;;5.88;100.00
57290;BME280;43523;53.022;-1.178;2022-11-03T02:24:48;99537.95;;;5.94;100.00
57290;BME280;43523;53.022;-1.178;2022-11-03T02:25:52;99540.79;;;6.14;100.00
57290;BME280;43523;53.022;-1.178;2022-11-03T02:26:56;99540.52;;;5.94;100.00
57290;BME280;43523;53.022;-1.178;2022-11-03T02:27:58;99544.63;;;6.34;100.00
57290;BME280;43523;53.022;-1.178;2022-11-03T02:29:01;99542.07;;;5.84;100.00
57290;BME280;43523;53.022;-1.178;2022-11-03T02:30:05;99537.97;;;5.95;100.00
57290;BME280;43523;53.022;-1.178;2022-11-03T02:31:11;99536.10;;;5.97;100.00
57290;BME280;43523;53.022;-1.178;2022-11-03T02:32:20;99538.60;;;6.10;100.00
57290;BME280;43523;53.022;-1.178;2022-11-03T02:33:30;99534.99;;;6.40;100.00
57290;BME280;43523;53.022;-1.178;2022-11-03T02:34:41;99541.86;;;5.46;100.00
57290;BME280;43523;53.022;-1.178;2022-11-03T02:35:53;99544.19;;;5.98;100.00
57290;BME280;43523;53.022;-1.178;2022-11-03T02:37:03;99538.60;;;6.22;100.00
57290;BME280;43523;53.022;-1.178;2022-11-03T02:38:12;99532.15;;;6.25;100.00
57290;BME280;43523;53.022;-1.178;2022-11-03T02:39:19;99533.36;;;6.08;100.00
57290;BME280;43523;53.022;-1.178;2022-11-03T02:40:28;99539.69;;;5.98;100.00
57290;BME280;43523;53.022;-1.178;2022-11-03T02:41:34;99538.18;;;5.91;100.00
57290;BME280;43523;53.022;-1.178;2022-11-03T02:42:40;99539.13;;;6.11;100.00
57290;BME280;43523;53.022;-1.178;2022-11-03T02:43:46;99535.42;;;5.96;100.00
57290;BME280;43523;53.022;-1.178;2022-11-03T02:44:51;99536.50;;;5.69;100.00
57290;BME280;43523;53.022;-1.178;2022-11-03T02:46:00;99530.36;;;5.86;100.00
57290;BME280;43523;53.022;-1.178;2022-11-03T02:47:08;99520.11;;;5.82;100.00
57290;BME280;43523;53.022;-1.178;2022-11-03T02:48:13;99515.67;;;5.77;100.00
57290;BME280;43523;53.022;-1.178;2022-11-03T02:49:17;99511.83;;;5.72;100.00
57290;BME280;43523;53.022;-1.178;2022-11-03T02:50:26;99516.61;;;5.78;100.00
57290;BME280;43523;53.022;-1.178;2022-11-03T02:51:29;99515.82;;;6.30;100.00
57290;BME280;43523;53.022;-1.178;2022-11-03T02:52:36;99511.79;;;5.85;100.00
57290;BME280;43523;53.022;-1.178;2022-11-03T02:53:43;99511.41;;;5.74;100.00
57290;BME280;43523;53.022;-1.178;2022-11-03T02:54:48;99505.89;;;5.98;100.00
57290;BME280;43523;53.022;-1.178;2022-11-03T02:55:58;99507.67;;;5.57;100.00
57290;BME280;43523;53.022;-1.178;2022-11-03T02:57:06;99512.13;;;5.62;100.00
57290;BME280;43523;53.022;-1.178;2022-11-03T02:58:18;99515.99;;;5.55;100.00
57290;BME280;43523;53.022;-1.178;2022-11-03T02:59:26;99511.13;;;5.79;100.00
57290;BME280;43523;53.022;-1.178;2022-11-03T03:00:30;99516.89;;;5.67;100.00
57290;BME280;43523;53.022;-1.178;2022-11-03T03:01:36;99506.69;;;5.74;100.00
57290;BME280;43523;53.022;-1.178;2022-11-03T03:02:46;99503.69;;;5.22;100.00
57290;BME280;43523;53.022;-1.178;2022-11-03T03:03:54;99495.06;;;6.27;100.00
57290;BME280;43523;53.022;-1.178;2022-11-03T03:05:01;99495.82;;;6.06;100.00
57290;BME280;43523;53.022;-1.178;2022-11-03T03:06:08;99494.31;;;5.82;100.00
57290;BME280;43523;53.022;-1.178;2022-11-03T03:07:16;99492.61;;;5.66;100.00
57290;BME280;43523;53.022;-1.178;2022-11-03T03:08:22;99492.87;;;5.52;100.00
57290;BME280;43523;53.022;-1.178;2022-11-03T03:09:29;99493.67;;;5.56;100.00
57290;BME280;43523;53.022;-1.178;2022-11-03T03:10:37;99492.54;;;5.54;100.00
57290;BME280;43523;53.022;-1.178;2022-11-03T03:11:42;99492.04;;;5.71;100.00
57290;BME280;43523;53.022;-1.178;2022-11-03T03:12:49;99491.76;;;5.73;100.00
57290;BME280;43523;53.022;-1.178;2022-11-03T03:13:51;99496.86;;;5.64;100.00
57290;BME280;43523;53.022;-1.178;2022-11-03T03:14:56;99495.28;;;5.78;100.00
57290;BME280;43523;53.022;-1.178;2022-11-03T03:16:06;99496.70;;;5.85;100.00
57290;BME280;43523;53.022;-1.178;2022-11-03T03:17:15;99488.90;;;5.67;100.00
57290;BME280;43523;53.022;-1.178;2022-11-03T03:18:23;99484.49;;;5.89;100.00
57290;BME280;43523;53.022;-1.178;2022-11-03T03:19:35;99483.52;;;5.68;100.00
57290;BME280;43523;53.022;-1.178;2022-11-03T03:20:41;99487.09;;;5.67;100.00
57290;BME280;43523;53.022;-1.178;2022-11-03T03:21:51;99493.41;;;5.51;100.00
57290;BME280;43523;53.022;-1.178;2022-11-03T03:22:56;99491.84;;;5.56;100.00
57290;BME280;43523;53.022;-1.178;2022-11-03T03:24:14;99488.72;;;5.54;100.00
57290;BME280;43523;53.022;-1.178;2022-11-03T03:25:23;99487.04;;;5.81;100.00
57290;BME280;43523;53.022;-1.178;2022-11-03T03:26:31;99480.65;;;5.98;100.00
57290;BME280;43523;53.022;-1.178;2022-11-03T03:27:37;99474.28;;;5.78;100.00
57290;BME280;43523;53.022;-1.178;2022-11-03T03:28:45;99468.49;;;5.62;100.00
57290;BME280;43523;53.022;-1.178;2022-11-03T03:29:50;99468.98;;;5.52;100.00
57290;BME280;43523;53.022;-1.178;2022-11-03T03:30:56;99456.60;;;5.81;100.00
57290;BME280;43523;53.022;-1.178;2022-11-03T03:32:06;99451.77;;;6.01;100.00
57290;BME280;43523;53.022;-1.178;2022-11-03T03:33:10;99449.42;;;5.78;100.00
57290;BME280;43523;53.022;-1.178;2022-11-03T03:34:16;99449.40;;;6.32;100.00
57290;BME280;43523;53.022;-1.178;2022-11-03T03:35:24;99451.64;;;6.27;100.00
57290;BME280;43523;53.022;-1.178;2022-11-03T03:36:29;99458.79;;;6.43;100.00
57290;BME280;43523;53.022;-1.178;2022-11-03T03:37:34;99460.09;;;6.29;100.00
57290;BME280;43523;53.022;-1.178;2022-11-03T03:38:42;99453.11;;;5.98;100.00
57290;BME280;43523;53.022;-1.178;2022-11-03T03:39:47;99454.26;;;5.51;100.00
57290;BME280;43523;53.022;-1.178;2022-11-03T03:40:55;99452.30;;;5.89;100.00
57290;BME280;43523;53.022;-1.178;2022-11-03T03:42:01;99454.95;;;5.99;100.00
57290;BME280;43523;53.022;-1.178;2022-11-03T03:43:06;99455.57;;;5.96;100.00
57290;BME280;43523;53.022;-1.178;2022-11-03T03:44:10;99456.45;;;6.35;100.00
57290;BME280;43523;53.022;-1.178;2022-11-03T03:45:15;99451.34;;;6.33;100.00
57290;BME280;43523;53.022;-1.178;2022-11-03T03:46:22;99449.34;;;6.25;100.00
57290;BME280;43523;53.022;-1.178;2022-11-03T03:47:29;99441.30;;;6.52;100.00
57290;BME280;43523;53.022;-1.178;2022-11-03T03:48:33;99440.72;;;6.72;100.00
57290;BME280;43523;53.022;-1.178;2022-11-03T03:49:36;99441.44;;;6.38;100.00
57290;BME280;43523;53.022;-1.178;2022-11-03T03:50:39;99440.78;;;6.29;100.00
57290;BME280;43523;53.022;-1.178;2022-11-03T03:51:43;99439.04;;;6.26;100.00
57290;BME280;43523;53.022;-1.178;2022-11-03T03:52:48;99437.40;;;6.90;100.00
57290;BME280;43523;53.022;-1.178;2022-11-03T03:53:53;99436.34;;;7.12;100.00
57290;BME280;43523;53.022;-1.178;2022-11-03T03:54:56;99436.65;;;7.02;100.00
57290;BME280;43523;53.022;-1.178;2022-11-03T03:55:58;99432.60;;;7.46;100.00
57290;BME280;43523;53.022;-1.178;2022-11-03T03:57:04;99432.60;;;7.05;100.00
57290;BME280;43523;53.022;-1.178;2022-11-03T03:58:10;99435.86;;;7.16;100.00
57290;BME280;43523;53.022;-1.178;2022-11-03T03:59:14;99438.59;;;7.27;100.00
57290;BME280;43523;53.022;-1.178;2022-11-03T04:00:16;99441.76;;;6.92;100.00
57290;BME280;43523;53.022;-1.178;2022-11-03T04:01:19;99441.03;;;6.42;100.00
57290;BME280;43523;53.022;-1.178;2022-11-03T04:02:21;99445.74;;;7.03;100.00
57290;BME280;43523;53.022;-1.178;2022-11-03T04:03:24;99446.64;;;6.87;100.00
57290;BME280;43523;53.022;-1.178;2022-11-03T04:04:26;99446.35;;;7.06;100.00
57290;BME280;43523;53.022;-1.178;2022-11-03T04:05:29;99445.57;;;6.13;100.00
57290;BME280;43523;53.022;-1.178;2022-11-03T04:06:31;99447.27;;;6.02;100.00
57290;BME280;43523;53.022;-1.178;2022-11-03T04:07:34;99444.12;;;6.00;100.00
57290;BME280;43523;53.022;-1.178;2022-11-03T04:08:39;99441.41;;;5.92;100.00
57290;BME280;43523;53.022;-1.178;2022-11-03T04:09:41;99430.30;;;6.41;100.00
57290;BME280;43523;53.022;-1.178;2022-11-03T04:10:44;99428.88;;;6.32;100.00
57290;BME280;43523;53.022;-1.178;2022-11-03T04:11:47;99435.50;;;6.94;100.00
57290;BME280;43523;53.022;-1.178;2022-11-03T04:12:49;99431.88;;;6.48;100.00
57290;BME280;43523;53.022;-1.178;2022-11-03T04:13:56;99430.28;;;6.47;100.00
57290;BME280;43523;53.022;-1.178;2022-11-03T04:14:59;99423.59;;;7.06;100.00
57290;BME280;43523;53.022;-1.178;2022-11-03T04:16:01;99426.86;;;6.43;100.00
57290;BME280;43523;53.022;-1.178;2022-11-03T04:17:04;99423.05;;;6.81;100.00
57290;BME280;43523;53.022;-1.178;2022-11-03T04:18:06;99426.31;;;6.91;100.00
57290;BME280;43523;53.022;-1.178;2022-11-03T04:19:10;99427.45;;;6.17;100.00
57290;BME280;43523;53.022;-1.178;2022-11-03T04:20:12;99430.49;;;6.31;100.00
57290;BME280;43523;53.022;-1.178;2022-11-03T04:21:15;99430.34;;;6.44;100.00
57290;BME280;43523;53.022;-1.178;2022-11-03T04:22:17;99431.03;;;6.11;100.00
57290;BME280;43523;53.022;-1.178;2022-11-03T04:23:25;99426.07;;;6.33;100.00
57290;BME280;43523;53.022;-1.178;2022-11-03T04:24:28;99424.78;;;5.90;100.00
57290;BME280;43523;53.022;-1.178;2022-11-03T04:25:31;99423.55;;;6.61;100.00
57290;BME280;43523;53.022;-1.178;2022-11-03T04:26:34;99420.78;;;6.26;100.00
57290;BME280;43523;53.022;-1.178;2022-11-03T04:27:37;99418.47;;;6.23;100.00
57290;BME280;43523;53.022;-1.178;2022-11-03T04:28:39;99415.92;;;6.50;100.00
57290;BME280;43523;53.022;-1.178;2022-11-03T04:29:41;99414.07;;;6.45;100.00
57290;BME280;43523;53.022;-1.178;2022-11-03T04:30:44;99406.29;;;6.66;100.00
57290;BME280;43523;53.022;-1.178;2022-11-03T04:31:47;99403.03;;;6.64;100.00
57290;BME280;43523;53.022;-1.178;2022-11-03T04:32:50;99407.29;;;6.08;100.00
57290;BME280;43523;53.022;-1.178;2022-11-03T04:33:54;99407.70;;;6.31;100.00
57290;BME280;43523;53.022;-1.178;2022-11-03T04:34:58;99408.29;;;6.72;100.00
57290;BME280;43523;53.022;-1.178;2022-11-03T04:36:00;99404.50;;;6.76;100.00
57290;BME280;43523;53.022;-1.178;2022-11-03T04:37:07;99402.20;;;6.86;100.00
57290;BME280;43523;53.022;-1.178;2022-11-03T04:38:21;99400.08;;;6.81;100.00
57290;BME280;43523;53.022;-1.178;2022-11-03T04:39:24;99400.67;;;7.07;100.00
57290;BME280;43523;53.022;-1.178;2022-11-03T04:40:26;99401.26;;;6.87;100.00
57290;BME280;43523;53.022;-1.178;2022-11-03T04:41:32;99396.27;;;6.78;100.00
57290;BME280;43523;53.022;-1.178;2022-11-03T04:42:35;99394.90;;;6.19;100.00
57290;BME280;43523;53.022;-1.178;2022-11-03T04:43:38;99394.48;;;6.28;100.00
57290;BME280;43523;53.022;-1.178;2022-11-03T04:44:41;99394.30;;;6.25;100.00
57290;BME280;43523;53.022;-1.178;2022-11-03T04:45:46;99391.15;;;6.33;100.00
57290;BME280;43523;53.022;-1.178;2022-11-03T04:46:49;99389.18;;;6.72;100.00
57290;BME280;43523;53.022;-1.178;2022-11-03T04:47:52;99389.33;;;6.99;100.00
57290;BME280;43523;53.022;-1.178;2022-11-03T04:48:57;99387.34;;;6.93;100.00
57290;BME280;43523;53.022;-1.178;2022-11-03T04:50:00;99388.91;;;7.05;100.00
57290;BME280;43523;53.022;-1.178;2022-11-03T04:51:12;99385.78;;;6.72;100.00
57290;BME280;43523;53.022;-1.178;2022-11-03T04:52:19;99384.71;;;6.99;100.00
57290;BME280;43523;53.022;-1.178;2022-11-03T04:53:23;99384.19;;;7.15;100.00
57290;BME280;43523;53.022;-1.178;2022-11-03T04:54:29;99386.88;;;6.65;100.00
57290;BME280;43523;53.022;-1.178;2022-11-03T04:55:31;99391.97;;;6.17;100.00
57290;BME280;43523;53.022;-1.178;2022-11-03T04:56:34;99390.67;;;6.13;100.00
57290;BME280;43523;53.022;-1.178;2022-11-03T04:57:37;99387.67;;;6.61;100.00
57290;BME280;43523;53.022;-1.178;2022-11-03T04:58:40;99389.03;;;6.33;100.00
57290;BME280;43523;53.022;-1.178;2022-11-03T04:59:45;99388.07;;;6.55;100.00
57290;BME280;43523;53.022;-1.178;2022-11-03T05:00:51;99389.00;;;6.97;100.00
57290;BME280;43523;53.022;-1.178;2022-11-03T05:01:53;99387.78;;;7.22;100.00
57290;BME280;43523;53.022;-1.178;2022-11-03T05:02:56;99386.48;;;6.55;100.00
57290;BME280;43523;53.022;-1.178;2022-11-03T05:03:59;99382.87;;;6.95;100.00
57290;BME280;43523;53.022;-1.178;2022-11-03T05:05:07;99379.43;;;6.15;100.00
57290;BME280;43523;53.022;-1.178;2022-11-03T05:06:18;99375.65;;;6.34;100.00
57290;BME280;43523;53.022;-1.178;2022-11-03T05:07:26;99379.62;;;6.31;100.00
57290;BME280;43523;53.022;-1.178;2022-11-03T05:08:29;99376.92;;;5.96;100.00
57290;BME280;43523;53.022;-1.178;2022-11-03T05:10:12;99381.13;;;6.56;100.00
57290;BME280;43523;53.022;-1.178;2022-11-03T05:11:19;99378.63;;;6.46;100.00
57290;BME280;43523;53.022;-1.178;2022-11-03T05:12:23;99377.29;;;6.64;100.00
57290;BME280;43523;53.022;-1.178;2022-11-03T05:13:28;99380.78;;;6.18;100.00
57290;BME280;43523;53.022;-1.178;2022-11-03T05:14:31;99379.62;;;6.15;100.00
57290;BME280;43523;53.022;-1.178;2022-11-03T05:15:35;99383.74;;;6.30;100.00
57290;BME280;43523;53.022;-1.178;2022-11-03T05:16:38;99379.17;;;5.95;100.00
57290;BME280;43523;53.022;-1.178;2022-11-03T05:17:41;99377.56;;;6.16;100.00
57290;BME280;43523;53.022;-1.178;2022-11-03T05:18:47;99379.30;;;6.03;100.00
57290;BME280;43523;53.022;-1.178;2022-11-03T05:19:53;99376.64;;;6.35;100.00
57290;BME280;43523;53.022;-1.178;2022-11-03T05:21:00;99378.62;;;6.42;100.00
57290;BME280;43523;53.022;-1.178;2022-11-03T05:22:04;99380.31;;;6.19;100.00
57290;BME280;43523;53.022;-1.178;2022-11-03T05:23:14;99373.01;;;6.51;100.00
57290;BME280;43523;53.022;-1.178;2022-11-03T05:24:18;99370.89;;;6.63;100.00
57290;BME280;43523;53.022;-1.178;2022-11-03T05:25:34;99369.42;;;5.76;100.00
57290;BME280;43523;53.022;-1.178;2022-11-03T05:26:38;99370.65;;;6.40;100.00
57290;BME280;43523;53.022;-1.178;2022-11-03T05:27:40;99367.89;;;6.70;100.00
57290;BME280;43523;53.022;-1.178;2022-11-03T05:28:45;99365.02;;;6.63;100.00
57290;BME280;43523;53.022;-1.178;2022-11-03T05:29:49;99360.71;;;6.82;100.00
57290;BME280;43523;53.022;-1.178;2022-11-03T05:30:53;99356.82;;;6.85;100.00
57290;BME280;43523;53.022;-1.178;2022-11-03T05:31:56;99356.10;;;7.11;100.00
57290;BME280;43523;53.022;-1.178;2022-11-03T05:32:59;99356.46;;;6.99;100.00
57290;BME280;43523;53.022;-1.178;2022-11-03T05:34:05;99356.81;;;7.09;100.00
57290;BME280;43523;53.022;-1.178;2022-11-03T05:35:20;99356.95;;;7.02;100.00
57290;BME280;43523;53.022;-1.178;2022-11-03T05:36:25;99352.19;;;7.08;100.00
57290;BME280;43523;53.022;-1.178;2022-11-03T05:37:31;99351.18;;;6.81;100.00
57290;BME280;43523;53.022;-1.178;2022-11-03T05:38:34;99349.43;;;6.90;100.00
57290;BME280;43523;53.022;-1.178;2022-11-03T05:39:39;99349.26;;;6.88;100.00